Wetterdaten: Woche 13.05.13 - 19.05.13 (KW20)
Datum Zeit Temperatur Luftfeuchte Luftdruck Niederschlag Windrichtung Sonnenschein Solar Wind
13.05.2013 00:00 4,9 C 94 % 1020,2 hPa 0,0 l/m N 0,00 h 0 W/m 0,1 km/h (0 Bft)
13.05.2013 01:00 5,1 C 95 % 1020,2 hPa 0,0 l/m N 0,00 h 0 W/m 0,1 km/h (0 Bft)
13.05.2013 02:00 5,7 C 96 % 1020,0 hPa 0,0 l/m N 0,00 h 0 W/m 1,1 km/h (0 Bft)
13.05.2013 03:00 6,0 C 95 % 1019,7 hPa 0,0 l/m SW 0,00 h 0 W/m 4,4 km/h (1 Bft)
13.05.2013 04:00 6,1 C 92 % 1019,4 hPa 0,0 l/m SW 0,00 h 0 W/m 5,3 km/h (1 Bft)
13.05.2013 05:00 5,8 C 94 % 1019,0 hPa 0,0 l/m SW 0,00 h 5 W/m 7,4 km/h (2 Bft)
13.05.2013 06:00 6,1 C 92 % 1019,1 hPa 0,0 l/m SW 0,00 h 21 W/m 8,2 km/h (2 Bft)
13.05.2013 07:00 6,6 C 93 % 1019,1 hPa 0,0 l/m SW 0,00 h 54 W/m 8,2 km/h (2 Bft)
13.05.2013 08:00 7,7 C 89 % 1019,2 hPa 0,2 l/m SW 0,00 h 98 W/m 12,9 km/h (3 Bft)
13.05.2013 09:00 8,1 C 86 % 1019,2 hPa 0,2 l/m W-SW 0,00 h 173 W/m 20,1 km/h (4 Bft)
13.05.2013 10:00 8,6 C 80 % 1019,0 hPa 0,2 l/m W-SW 0,00 h 162 W/m 24,4 km/h (4 Bft)
13.05.2013 11:00 8,3 C 85 % 1018,9 hPa 0,4 l/m SW 0,00 h 136 W/m 23,7 km/h (4 Bft)
13.05.2013 12:00 8,8 C 84 % 1018,8 hPa 0,2 l/m SW 0,00 h 133 W/m 23,5 km/h (4 Bft)
13.05.2013 13:00 9,8 C 81 % 1018,5 hPa 0,0 l/m SW 0,00 h 214 W/m 21,2 km/h (4 Bft)
13.05.2013 14:00 10,9 C 77 % 1018,1 hPa 0,0 l/m W-SW 0,00 h 225 W/m 20,1 km/h (4 Bft)
13.05.2013 15:00 12,0 C 71 % 1017,6 hPa 0,2 l/m W-SW 0,08 h 291 W/m 24,5 km/h (4 Bft)
13.05.2013 16:00 12,9 C 68 % 1017,1 hPa 0,0 l/m W-SW 0,58 h 535 W/m 27,1 km/h (4 Bft)
13.05.2013 17:00 13,5 C 66 % 1016,7 hPa 0,0 l/m W-SW 0,17 h 250 W/m 24,0 km/h (4 Bft)
13.05.2013 18:00 12,8 C 69 % 1016,2 hPa 0,0 l/m W-SW 0,00 h 94 W/m 15,8 km/h (3 Bft)
13.05.2013 19:00 12,9 C 70 % 1015,9 hPa 0,0 l/m W-SW 0,33 h 89 W/m 12,9 km/h (3 Bft)
13.05.2013 20:00 11,8 C 76 % 1015,7 hPa 0,0 l/m W-SW 0,08 h 18 W/m 5,6 km/h (1 Bft)
13.05.2013 21:00 10,6 C 82 % 1015,9 hPa 0,0 l/m W-SW 0,00 h 0 W/m 4,4 km/h (1 Bft)
13.05.2013 22:00 10,9 C 79 % 1016,0 hPa 0,0 l/m W-SW 0,00 h 0 W/m 8,2 km/h (2 Bft)
13.05.2013 23:00 10,3 C 81 % 1015,7 hPa 0,0 l/m W 0,00 h 0 W/m 8,0 km/h (2 Bft)
14.05.2013 00:00 10,4 C 83 % 1015,3 hPa 0,0 l/m W-NW 0,00 h 0 W/m 5,3 km/h (1 Bft)
14.05.2013 01:00 10,2 C 84 % 1015,0 hPa 0,0 l/m W-NW 0,00 h 0 W/m 5,1 km/h (1 Bft)
14.05.2013 02:00 9,7 C 87 % 1014,6 hPa 0,0 l/m N 0,00 h 0 W/m 2,3 km/h (1 Bft)
14.05.2013 03:00 9,6 C 89 % 1014,2 hPa 0,0 l/m W 0,00 h 0 W/m 4,3 km/h (1 Bft)
14.05.2013 04:00 9,2 C 92 % 1013,8 hPa 0,0 l/m W 0,00 h 0 W/m 5,5 km/h (1 Bft)
14.05.2013 05:00 9,0 C 93 % 1013,6 hPa 0,0 l/m W 0,00 h 0 W/m 3,7 km/h (1 Bft)
14.05.2013 06:00 8,9 C 93 % 1013,5 hPa 0,0 l/m W 0,00 h 31 W/m 2,8 km/h (1 Bft)
14.05.2013 07:00 9,7 C 90 % 1013,4 hPa 0,0 l/m SW 0,17 h 113 W/m 9,5 km/h (2 Bft)
14.05.2013 08:00 11,1 C 80 % 1013,2 hPa 0,0 l/m W-SW 0,67 h 296 W/m 13,7 km/h (3 Bft)
14.05.2013 09:00 12,7 C 67 % 1013,0 hPa 0,0 l/m W 1,00 h 556 W/m 23,1 km/h (4 Bft)
14.05.2013 10:00 13,7 C 63 % 1012,6 hPa 0,0 l/m W-NW 0,83 h 601 W/m 22,8 km/h (4 Bft)
14.05.2013 11:00 15,1 C 62 % 1011,8 hPa 0,0 l/m W-SW 1,00 h 780 W/m 20,2 km/h (4 Bft)
14.05.2013 12:00 15,8 C 60 % 1011,1 hPa 0,0 l/m W-SW 1,00 h 754 W/m 16,5 km/h (3 Bft)
14.05.2013 13:00 16,6 C 57 % 1010,2 hPa 0,0 l/m W 1,00 h 909 W/m 17,6 km/h (3 Bft)
14.05.2013 14:00 18,0 C 54 % 1009,1 hPa 0,0 l/m SW 1,00 h 872 W/m 15,4 km/h (3 Bft)
14.05.2013 15:00 19,2 C 52 % 1008,1 hPa 0,0 l/m S 1,00 h 796 W/m 14,2 km/h (3 Bft)
14.05.2013 16:00 19,8 C 50 % 1007,2 hPa 0,0 l/m S-SW 1,00 h 680 W/m 10,6 km/h (2 Bft)
14.05.2013 17:00 20,0 C 47 % 1006,4 hPa 0,0 l/m SO 1,00 h 533 W/m 9,8 km/h (2 Bft)
14.05.2013 18:00 19,6 C 48 % 1005,8 hPa 0,0 l/m O-SO 1,00 h 357 W/m 7,0 km/h (2 Bft)
14.05.2013 19:00 18,8 C 51 % 1005,4 hPa 0,0 l/m O-SO 1,00 h 162 W/m 6,1 km/h (2 Bft)
14.05.2013 20:00 17,1 C 61 % 1004,9 hPa 0,0 l/m O-SO 0,00 h 15 W/m 4,3 km/h (1 Bft)
14.05.2013 21:00 14,5 C 72 % 1004,4 hPa 0,0 l/m N 0,00 h 0 W/m 1,3 km/h (1 Bft)
14.05.2013 22:00 12,4 C 83 % 1004,2 hPa 0,0 l/m N 0,00 h 0 W/m 0,7 km/h (0 Bft)
14.05.2013 23:00 12,1 C 85 % 1003,8 hPa 0,0 l/m N 0,00 h 0 W/m 1,9 km/h (1 Bft)
15.05.2013 00:00 11,4 C 88 % 1003,5 hPa 0,0 l/m O-NO 0,00 h 0 W/m 2,1 km/h (1 Bft)
15.05.2013 01:00 10,2 C 92 % 1002,8 hPa 0,0 l/m N 0,00 h 0 W/m 0,9 km/h (0 Bft)
15.05.2013 02:00 9,4 C 94 % 1002,1 hPa 0,0 l/m N 0,00 h 0 W/m 0,1 km/h (0 Bft)
15.05.2013 03:00 9,4 C 96 % 1001,6 hPa 0,0 l/m N 0,00 h 0 W/m 1,1 km/h (0 Bft)
15.05.2013 04:00 9,7 C 95 % 1001,1 hPa 0,0 l/m N 0,00 h 0 W/m 1,2 km/h (1 Bft)
15.05.2013 05:00 9,4 C 95 % 1000,8 hPa 0,0 l/m O-NO 0,00 h 7 W/m 2,1 km/h (1 Bft)
15.05.2013 06:00 9,4 C 96 % 1000,8 hPa 0,0 l/m N 0,25 h 47 W/m 0,7 km/h (0 Bft)
15.05.2013 07:00 11,6 C 89 % 1000,3 hPa 0,0 l/m N 0,67 h 156 W/m 2,0 km/h (1 Bft)
15.05.2013 08:00 14,6 C 75 % 1000,0 hPa 0,0 l/m N 0,83 h 324 W/m 1,7 km/h (1 Bft)
15.05.2013 09:00 17,1 C 64 % 999,8 hPa 0,0 l/m O-NO 0,67 h 408 W/m 5,8 km/h (1 Bft)
15.05.2013 10:00 17,5 C 63 % 999,6 hPa 0,0 l/m N-NW 0,25 h 288 W/m 5,3 km/h (1 Bft)
15.05.2013 11:00 18,6 C 60 % 999,6 hPa 0,0 l/m N-NW 0,67 h 585 W/m 5,6 km/h (1 Bft)
15.05.2013 12:00 19,8 C 51 % 999,3 hPa 0,0 l/m SW 0,33 h 432 W/m 6,7 km/h (2 Bft)
15.05.2013 13:00 21,5 C 43 % 998,7 hPa 0,0 l/m SW 1,00 h 866 W/m 8,2 km/h (2 Bft)
15.05.2013 14:00 22,1 C 39 % 998,4 hPa 0,0 l/m W-SW 0,75 h 575 W/m 16,4 km/h (3 Bft)
15.05.2013 15:00 20,8 C 41 % 998,6 hPa 0,0 l/m SW 0,00 h 185 W/m 15,7 km/h (3 Bft)
15.05.2013 16:00 20,8 C 42 % 998,4 hPa 0,0 l/m SW 0,42 h 333 W/m 16,1 km/h (3 Bft)
15.05.2013 17:00 20,2 C 44 % 998,3 hPa 0,0 l/m SW 0,17 h 207 W/m 13,4 km/h (3 Bft)
15.05.2013 18:00 19,8 C 47 % 998,1 hPa 0,0 l/m SW 0,00 h 113 W/m 7,3 km/h (2 Bft)
15.05.2013 19:00 18,9 C 49 % 998,1 hPa 0,0 l/m N 0,00 h 38 W/m 1,2 km/h (1 Bft)
15.05.2013 20:00 16,4 C 73 % 998,5 hPa 0,0 l/m N-NO 0,00 h 11 W/m 13,4 km/h (3 Bft)
15.05.2013 21:00 14,8 C 79 % 999,0 hPa 0,0 l/m N-NO 0,00 h 0 W/m 11,6 km/h (2 Bft)
15.05.2013 22:00 13,1 C 85 % 999,7 hPa 0,0 l/m N-NO 0,00 h 0 W/m 6,3 km/h (2 Bft)
15.05.2013 23:00 11,8 C 89 % 999,9 hPa 0,0 l/m N-NO 0,00 h 0 W/m 3,1 km/h (1 Bft)
16.05.2013 00:00 10,7 C 92 % 999,6 hPa 0,0 l/m N-NO 0,00 h 0 W/m 4,5 km/h (1 Bft)
16.05.2013 01:00 9,8 C 94 % 999,3 hPa 0,0 l/m N 0,00 h 0 W/m 1,5 km/h (1 Bft)
16.05.2013 02:00 9,1 C 95 % 998,7 hPa 0,0 l/m N 0,00 h 0 W/m 0,8 km/h (0 Bft)
16.05.2013 03:00 8,8 C 94 % 998,3 hPa 0,0 l/m N-NO 0,00 h 0 W/m 3,3 km/h (1 Bft)
16.05.2013 04:00 8,7 C 94 % 997,2 hPa 0,0 l/m N-NO 0,00 h 0 W/m 3,6 km/h (1 Bft)
16.05.2013 05:00 8,9 C 94 % 995,9 hPa 0,0 l/m N-NO 0,08 h 8 W/m 3,2 km/h (1 Bft)
16.05.2013 06:00 9,8 C 92 % 995,1 hPa 0,0 l/m N-NO 0,00 h 40 W/m 4,4 km/h (1 Bft)
16.05.2013 07:00 10,6 C 90 % 994,4 hPa 0,0 l/m N-NO 0,00 h 38 W/m 8,0 km/h (2 Bft)
16.05.2013 08:00 10,6 C 92 % 993,7 hPa 0,0 l/m N-NO 0,00 h 27 W/m 7,0 km/h (2 Bft)
16.05.2013 09:00 10,5 C 95 % 993,6 hPa 0,2 l/m N 0,00 h 72 W/m 6,9 km/h (2 Bft)
16.05.2013 10:00 11,3 C 94 % 993,0 hPa 0,0 l/m N-NO 0,00 h 146 W/m 9,7 km/h (2 Bft)
16.05.2013 11:00 12,6 C 90 % 992,4 hPa 0,0 l/m NO 0,08 h 326 W/m 9,4 km/h (2 Bft)
16.05.2013 12:00 14,2 C 84 % 992,1 hPa 0,0 l/m NO 0,08 h 254 W/m 9,1 km/h (2 Bft)
16.05.2013 13:00 15,1 C 81 % 992,2 hPa 0,0 l/m NO 0,00 h 248 W/m 8,3 km/h (2 Bft)
16.05.2013 14:00 16,0 C 78 % 992,1 hPa 0,0 l/m NO 0,08 h 254 W/m 6,4 km/h (2 Bft)
16.05.2013 15:00 15,9 C 80 % 992,3 hPa 0,0 l/m N-NO 0,00 h 127 W/m 6,6 km/h (2 Bft)
16.05.2013 16:00 15,5 C 82 % 992,5 hPa 0,2 l/m N-NW 0,00 h 138 W/m 10,2 km/h (2 Bft)
16.05.2013 17:00 15,8 C 80 % 992,9 hPa 0,0 l/m N-NW 0,00 h 186 W/m 6,9 km/h (2 Bft)
16.05.2013 18:00 16,1 C 78 % 993,1 hPa 0,0 l/m N-NW 0,33 h 152 W/m 10,1 km/h (2 Bft)
16.05.2013 19:00 14,7 C 85 % 993,5 hPa 0,0 l/m N-NW 0,00 h 39 W/m 8,9 km/h (2 Bft)
16.05.2013 20:00 13,4 C 89 % 993,9 hPa 0,0 l/m NW 0,00 h 10 W/m 3,2 km/h (1 Bft)
16.05.2013 21:00 12,7 C 92 % 994,3 hPa 0,0 l/m N 0,00 h 0 W/m 0,8 km/h (0 Bft)
16.05.2013 22:00 12,0 C 94 % 994,8 hPa 0,0 l/m N 0,00 h 0 W/m 1,2 km/h (1 Bft)
16.05.2013 23:00 11,6 C 95 % 995,1 hPa 0,0 l/m N 0,00 h 0 W/m 2,9 km/h (1 Bft)
17.05.2013 00:00 11,9 C 94 % 995,1 hPa 0,0 l/m NW 0,00 h 0 W/m 3,3 km/h (1 Bft)
17.05.2013 01:00 11,8 C 94 % 994,8 hPa 0,0 l/m N-NW 0,00 h 0 W/m 5,3 km/h (1 Bft)
17.05.2013 02:00 11,8 C 93 % 994,9 hPa 0,0 l/m N-NW 0,00 h 0 W/m 3,5 km/h (1 Bft)
17.05.2013 03:00 11,8 C 94 % 995,0 hPa 0,0 l/m N 0,00 h 0 W/m 2,5 km/h (1 Bft)
17.05.2013 04:00 11,7 C 95 % 994,6 hPa 0,0 l/m N-NW 0,00 h 0 W/m 3,2 km/h (1 Bft)
17.05.2013 05:00 11,5 C 96 % 994,4 hPa 0,0 l/m N-NW 0,00 h 0 W/m 3,6 km/h (1 Bft)
17.05.2013 06:00 11,5 C 98 % 994,9 hPa 0,6 l/m N 0,00 h 7 W/m 0,4 km/h (0 Bft)
17.05.2013 07:00 11,6 C 98 % 995,0 hPa 0,0 l/m N 0,00 h 16 W/m 0,7 km/h (0 Bft)
17.05.2013 08:00 11,6 C 98 % 995,5 hPa 0,2 l/m N-NW 0,00 h 36 W/m 3,9 km/h (1 Bft)
17.05.2013 09:00 11,4 C 98 % 996,1 hPa 0,0 l/m W 0,00 h 40 W/m 5,1 km/h (1 Bft)
17.05.2013 10:00 11,0 C 97 % 996,9 hPa 0,0 l/m SW 0,00 h 67 W/m 11,8 km/h (2 Bft)
17.05.2013 11:00 11,4 C 95 % 997,3 hPa 0,0 l/m W-SW 0,00 h 150 W/m 9,5 km/h (2 Bft)
17.05.2013 12:00 11,8 C 94 % 997,4 hPa 0,0 l/m S 0,00 h 86 W/m 7,6 km/h (2 Bft)
17.05.2013 13:00 12,0 C 92 % 997,9 hPa 0,0 l/m SW 0,00 h 129 W/m 9,5 km/h (2 Bft)
17.05.2013 14:00 13,3 C 87 % 998,4 hPa 0,0 l/m SW 0,00 h 279 W/m 14,1 km/h (3 Bft)
17.05.2013 15:00 12,9 C 85 % 999,2 hPa 0,0 l/m W-SW 0,00 h 161 W/m 15,3 km/h (3 Bft)
17.05.2013 16:00 12,8 C 84 % 999,2 hPa 0,0 l/m W 0,00 h 137 W/m 11,7 km/h (2 Bft)
17.05.2013 17:00 13,0 C 84 % 999,7 hPa 0,0 l/m N-NW 0,00 h 91 W/m 10,9 km/h (2 Bft)
17.05.2013 18:00 12,4 C 86 % 1000,3 hPa 0,0 l/m N-NW 0,00 h 66 W/m 8,0 km/h (2 Bft)
17.05.2013 19:00 12,3 C 86 % 1001,0 hPa 0,0 l/m N-NW 0,00 h 32 W/m 3,3 km/h (1 Bft)
17.05.2013 20:00 12,1 C 88 % 1001,5 hPa 0,0 l/m N 0,00 h 10 W/m 0,7 km/h (0 Bft)
17.05.2013 21:00 11,7 C 89 % 1002,0 hPa 0,0 l/m NW 0,00 h 0 W/m 4,3 km/h (1 Bft)
17.05.2013 22:00 11,2 C 90 % 1002,8 hPa 0,0 l/m N 0,00 h 0 W/m 2,4 km/h (1 Bft)
17.05.2013 23:00 10,2 C 93 % 1003,3 hPa 0,0 l/m N 0,00 h 0 W/m 0,7 km/h (0 Bft)
18.05.2013 00:00 9,5 C 96 % 1003,8 hPa 0,0 l/m N 0,00 h 0 W/m 0,1 km/h (0 Bft)
18.05.2013 01:00 9,3 C 96 % 1004,5 hPa 0,0 l/m N 0,00 h 0 W/m 0,5 km/h (0 Bft)
18.05.2013 02:00 8,3 C 96 % 1005,2 hPa 0,0 l/m N 0,00 h 0 W/m 1,5 km/h (1 Bft)
18.05.2013 03:00 7,3 C 97 % 1005,4 hPa 0,0 l/m N 0,00 h 0 W/m 0,0 km/h (0 Bft)
18.05.2013 04:00 6,5 C 97 % 1005,9 hPa 0,0 l/m N 0,00 h 0 W/m 0,9 km/h (0 Bft)
18.05.2013 05:00 6,3 C 98 % 1006,4 hPa 0,0 l/m N 0,00 h 8 W/m 1,9 km/h (1 Bft)
18.05.2013 06:00 6,5 C 98 % 1006,9 hPa 0,0 l/m N 0,00 h 40 W/m 1,5 km/h (1 Bft)
18.05.2013 07:00 8,2 C 99 % 1007,3 hPa 0,0 l/m NW 0,67 h 180 W/m 3,7 km/h (1 Bft)
18.05.2013 08:00 10,3 C 91 % 1007,8 hPa 0,0 l/m SW 0,58 h 281 W/m 12,4 km/h (3 Bft)
18.05.2013 09:00 12,7 C 78 % 1007,9 hPa 0,0 l/m SW 1,00 h 570 W/m 10,7 km/h (2 Bft)
18.05.2013 10:00 14,0 C 66 % 1007,6 hPa 0,0 l/m N-NW 0,92 h 695 W/m 10,5 km/h (2 Bft)
18.05.2013 11:00 15,4 C 61 % 1007,5 hPa 0,0 l/m O 1,00 h 821 W/m 8,1 km/h (2 Bft)
18.05.2013 12:00 16,8 C 55 % 1007,1 hPa 0,0 l/m S-SW 1,00 h 894 W/m 9,8 km/h (2 Bft)
18.05.2013 13:00 18,1 C 49 % 1006,9 hPa 0,0 l/m O-SO 1,00 h 921 W/m 10,1 km/h (2 Bft)
18.05.2013 14:00 19,4 C 44 % 1006,4 hPa 0,0 l/m O 1,00 h 866 W/m 9,4 km/h (2 Bft)
18.05.2013 15:00 21,1 C 39 % 1005,7 hPa 0,0 l/m O 1,00 h 815 W/m 14,8 km/h (3 Bft)
18.05.2013 16:00 21,2 C 39 % 1005,1 hPa 0,0 l/m SO 0,92 h 637 W/m 16,5 km/h (3 Bft)
18.05.2013 17:00 21,0 C 42 % 1004,8 hPa 0,0 l/m O-SO 1,00 h 450 W/m 17,8 km/h (3 Bft)
18.05.2013 18:00 20,0 C 47 % 1004,4 hPa 0,0 l/m O-SO 0,33 h 192 W/m 18,4 km/h (3 Bft)
18.05.2013 19:00 18,8 C 53 % 1004,2 hPa 0,0 l/m O-SO 0,42 h 128 W/m 13,4 km/h (3 Bft)
18.05.2013 20:00 17,7 C 60 % 1003,9 hPa 0,0 l/m O 0,08 h 23 W/m 9,5 km/h (2 Bft)
18.05.2013 21:00 15,8 C 69 % 1004,0 hPa 0,0 l/m O 0,00 h 0 W/m 2,8 km/h (1 Bft)
18.05.2013 22:00 14,0 C 78 % 1003,9 hPa 0,0 l/m N 0,00 h 0 W/m 0,9 km/h (0 Bft)
18.05.2013 23:00 13,4 C 82 % 1003,4 hPa 0,0 l/m N 0,00 h 0 W/m 1,6 km/h (1 Bft)
19.05.2013 00:00 12,8 C 85 % 1003,2 hPa 0,0 l/m N 0,00 h 0 W/m 2,3 km/h (1 Bft)
19.05.2013 01:00 12,3 C 85 % 1002,9 hPa 0,0 l/m O 0,00 h 0 W/m 3,6 km/h (1 Bft)
19.05.2013 02:00 11,7 C 87 % 1002,8 hPa 0,0 l/m O-NO 0,00 h 0 W/m 4,0 km/h (1 Bft)
19.05.2013 03:00 11,3 C 88 % 1002,7 hPa 0,0 l/m N-NO 0,00 h 0 W/m 4,5 km/h (1 Bft)
19.05.2013 04:00 11,2 C 90 % 1002,6 hPa 0,0 l/m N-NO 0,00 h 0 W/m 3,9 km/h (1 Bft)
19.05.2013 05:00 11,2 C 90 % 1002,2 hPa 0,0 l/m N 0,00 h 6 W/m 1,7 km/h (1 Bft)
19.05.2013 06:00 11,1 C 92 % 1002,6 hPa 0,0 l/m N-NO 0,00 h 13 W/m 2,4 km/h (1 Bft)
19.05.2013 07:00 10,9 C 92 % 1002,9 hPa 0,0 l/m SW 0,00 h 36 W/m 9,8 km/h (2 Bft)
19.05.2013 08:00 10,8 C 89 % 1003,4 hPa 0,0 l/m SW 0,00 h 89 W/m 14,8 km/h (3 Bft)
19.05.2013 09:00 11,0 C 87 % 1003,9 hPa 0,0 l/m W-SW 0,00 h 44 W/m 21,6 km/h (4 Bft)
19.05.2013 10:00 10,3 C 85 % 1004,3 hPa 0,0 l/m W 0,00 h 70 W/m 20,9 km/h (4 Bft)
19.05.2013 11:00 10,6 C 83 % 1004,8 hPa 0,0 l/m W 0,00 h 154 W/m 21,8 km/h (4 Bft)
19.05.2013 12:00 9,2 C 85 % 1006,1 hPa 0,0 l/m W-SW 0,00 h 113 W/m 29,1 km/h (5 Bft)
19.05.2013 13:00 8,5 C 91 % 1006,9 hPa 0,4 l/m W-SW 0,00 h 133 W/m 24,4 km/h (4 Bft)
19.05.2013 14:00 9,2 C 92 % 1006,7 hPa 0,0 l/m W-SW 0,00 h 177 W/m 13,6 km/h (3 Bft)
19.05.2013 15:00 9,4 C 90 % 1007,5 hPa 0,0 l/m W-SW 0,00 h 72 W/m 12,1 km/h (2 Bft)
19.05.2013 16:00 9,7 C 88 % 1007,7 hPa 0,0 l/m W-SW 0,00 h 194 W/m 12,8 km/h (3 Bft)
19.05.2013 17:00 11,3 C 81 % 1007,6 hPa 0,0 l/m W 0,50 h 313 W/m 13,7 km/h (3 Bft)
19.05.2013 18:00 12,2 C 75 % 1007,1 hPa 0,0 l/m W 0,67 h 284 W/m 12,5 km/h (3 Bft)
19.05.2013 19:00 12,5 C 74 % 1007,2 hPa 0,0 l/m W-NW 1,00 h 196 W/m 7,4 km/h (2 Bft)
19.05.2013 20:00 10,9 C 84 % 1007,9 hPa 0,0 l/m W-NW 0,08 h 14 W/m 2,8 km/h (1 Bft)
19.05.2013 21:00 10,4 C 85 % 1008,8 hPa 0,0 l/m W-NW 0,00 h 0 W/m 7,1 km/h (2 Bft)
19.05.2013 22:00 9,5 C 84 % 1009,6 hPa 0,0 l/m W-NW 0,00 h 0 W/m 10,5 km/h (2 Bft)
19.05.2013 23:00 8,4 C 89 % 1010,0 hPa 0,0 l/m SW 0,00 h 0 W/m 8,6 km/h (2 Bft)
Min-Datum _ 13.05.13 15.05.13 16.05.13 - - - - 13.05.13
_ Min-Zeit 00:20 14:25 12:50 - - - - 00:00
Minimum _ 4,8 C 36 % 991,9 hPa - - - - 0,0 km/h (0 Bft)
Max-Datum _ 15.05.13 13.05.13 13.05.13 17.05.13 - 13.05.13 15.05.13 13.05.13
_ Max-Zeit 13:45 02:40 00:45 06:00 - 15:30 13:55 16:50
Maximum _ 22,7 C 100 % 1020,4 hPa 0,6 l/m - 0,08 h 963 W/m 35,4 km/h
SW (5 Bft)
Durchschnitt _ 12,4 C 81 % 1004,5 hPa #3,0 l/m SW #32:45 h 248 W/m 8,4 km/h (2 Bft)